Time;durP1;ratioP1;P1;durP2;ratioP2;P2;SDS_P1;SDS_P2;PMS_P1;PMS_P2;Temp;Humidity;BMP_temperature;BMP_pressure;BME280_temperature;BME280_humidity;BME280_pressure;Samples;Min_cycle;Max_cycle;Signal;HPM_P1;HPM_P2
2023/10/03 00:01:22;;;;;;;0.20;0.20;;;18.70;99.90;;;;;;5012657;28;20493;-69
2023/10/03 00:03:52;;;;;;;0.20;0.20;;;18.70;99.90;;;;;;5010689;28;20052;-69
2023/10/03 00:06:18;;;;;;;0.20;0.20;;;18.70;99.90;;;;;;5008942;28;20119;-70
2023/10/03 00:08:45;;;;;;;0.20;0.20;;;18.70;99.90;;;;;;5024222;28;20733;-70
2023/10/03 00:11:18;;;;;;;0.20;0.20;;;18.70;99.90;;;;;;5010241;28;20048;-70
2023/10/03 00:13:45;;;;;;;0.20;0.20;;;18.70;99.90;;;;;;5009851;28;20060;-69
2023/10/03 00:16:11;;;;;;;0.20;0.20;;;18.70;99.90;;;;;;5006108;28;20173;-70
2023/10/03 00:18:36;;;;;;;0.20;0.20;;;18.70;99.90;;;;;;5011832;28;20507;-69
2023/10/03 00:21:03;;;;;;;0.20;0.20;;;18.70;99.90;;;;;;5007336;28;20041;-69
2023/10/03 00:23:29;;;;;;;0.20;0.20;;;18.70;99.90;;;;;;5028714;28;20077;-69
2023/10/03 00:25:55;;;;;;;0.20;0.20;;;18.70;99.90;;;;;;5010124;28;20072;-69
2023/10/03 00:28:21;;;;;;;0.20;0.20;;;18.70;99.90;;;;;;5012061;28;20045;-69
2023/10/03 00:30:48;;;;;;;0.10;0.10;;;18.40;99.90;;;;;;5012360;28;20373;-69
2023/10/03 00:33:15;;;;;;;0.20;0.20;;;18.70;99.90;;;;;;5009862;28;20045;-69
2023/10/03 00:35:42;;;;;;;0.20;0.20;;;18.70;99.90;;;;;;5028994;28;20060;-69
2023/10/03 00:38:13;;;;;;;0.20;0.20;;;18.70;99.90;;;;;;5018498;28;20099;-69
2023/10/03 00:40:40;;;;;;;0.15;0.15;;;18.70;99.90;;;;;;5004864;28;20076;-69
2023/10/03 00:43:07;;;;;;;0.20;0.20;;;18.70;99.90;;;;;;5011559;28;20467;-69
2023/10/03 00:45:34;;;;;;;0.20;0.20;;;18.70;99.90;;;;;;5028160;28;20053;-69
2023/10/03 00:48:08;;;;;;;0.10;0.10;;;18.60;99.90;;;;;;5012285;28;20052;-69
2023/10/03 00:50:35;;;;;;;0.20;0.20;;;18.60;99.90;;;;;;5010471;28;20120;-69
2023/10/03 00:53:08;;;;;;;0.20;0.20;;;18.60;99.90;;;;;;5008974;28;20120;-69
2023/10/03 00:55:35;;;;;;;0.10;0.10;;;18.60;99.90;;;;;;5007569;28;20081;-69
2023/10/03 01:00:28;;;;;;;0.20;0.20;;;18.50;99.90;;;;;;5011285;28;20079;-69
2023/10/03 01:02:54;;;;;;;0.20;0.20;;;18.60;99.90;;;;;;5011107;28;20259;-69
2023/10/03 01:05:20;;;;;;;0.20;0.20;;;18.50;99.90;;;;;;5011118;28;20046;-70
2023/10/03 01:07:49;;;;;;;0.13;0.13;;;18.50;99.90;;;;;;5007308;28;20478;-70
2023/10/03 01:10:19;;;;;;;0.20;0.20;;;18.50;99.90;;;;;;5011021;28;20050;-69
2023/10/03 01:12:46;;;;;;;0.20;0.20;;;18.50;99.90;;;;;;5011180;28;20096;-69
2023/10/03 01:15:16;;;;;;;0.20;0.20;;;18.50;99.90;;;;;;5009956;28;20060;-70
2023/10/03 01:17:49;;;;;;;0.20;0.20;;;18.40;99.90;;;;;;5027307;28;20050;-69
2023/10/03 01:20:25;;;;;;;0.10;0.10;;;18.40;99.90;;;;;;5010759;28;20061;-69
2023/10/03 01:22:54;;;;;;;0.20;0.20;;;18.40;99.90;;;;;;5010466;28;20037;-69
2023/10/03 01:25:20;;;;;;;0.20;0.20;;;18.40;99.90;;;;;;5007009;28;20053;-69
2023/10/03 01:27:47;;;;;;;0.13;0.13;;;18.40;99.90;;;;;;5008686;28;20104;-69
2023/10/03 01:30:13;;;;;;;0.20;0.20;;;18.30;99.90;;;;;;5028728;28;20445;-69
2023/10/03 01:32:48;;;;;;;0.10;0.10;;;18.30;99.90;;;;;;5012233;28;20049;-69
2023/10/03 01:35:15;;;;;;;0.20;0.20;;;18.20;99.90;;;;;;5014583;28;20081;-69
2023/10/03 01:37:41;;;;;;;0.20;0.20;;;18.20;99.90;;;;;;5020377;28;20103;-70
2023/10/03 01:40:13;;;;;;;0.20;0.20;;;18.20;99.90;;;;;;5009191;28;20485;-70
2023/10/03 01:42:45;;;;;;;0.20;0.20;;;18.10;99.90;;;;;;5006489;28;20051;-69
2023/10/03 01:45:19;;;;;;;0.20;0.20;;;18.20;99.90;;;;;;5032616;28;20608;-69
2023/10/03 01:47:47;;;;;;;0.20;0.20;;;18.10;99.90;;;;;;5014177;28;20053;-69
2023/10/03 01:50:14;;;;;;;0.20;0.20;;;18.10;99.90;;;;;;5013435;28;20103;-69
2023/10/03 01:52:40;;;;;;;0.20;0.20;;;18.10;99.90;;;;;;5031542;28;20056;-69
2023/10/03 01:55:08;;;;;;;0.20;0.20;;;18.10;99.90;;;;;;5012274;28;20413;-69
2023/10/03 01:57:34;;;;;;;0.10;0.10;;;18.00;99.90;;;;;;5009731;28;20052;-69
2023/10/03 02:00:00;;;;;;;0.10;0.10;;;18.00;99.90;;;;;;5012128;28;20049;-70
2023/10/03 02:02:26;;;;;;;0.20;0.20;;;18.10;99.90;;;;;;5010471;28;20052;-69
2023/10/03 02:04:52;;;;;;;0.10;0.10;;;18.10;99.90;;;;;;5011285;28;20049;-69
2023/10/03 02:07:18;;;;;;;0.20;0.20;;;18.00;99.90;;;;;;5013686;28;20057;-69
2023/10/03 02:09:44;;;;;;;0.20;0.20;;;18.00;99.90;;;;;;5005693;28;20046;-69
2023/10/03 02:12:10;;;;;;;0.20;0.20;;;18.00;99.90;;;;;;5012654;28;20060;-69
2023/10/03 02:14:39;;;;;;;0.20;0.20;;;18.00;99.90;;;;;;5005898;28;20046;-70
2023/10/03 02:17:05;;;;;;;0.20;0.20;;;17.90;99.90;;;;;;5008764;28;20065;-69
2023/10/03 02:19:31;;;;;;;0.20;0.20;;;17.90;99.90;;;;;;5030554;28;20049;-69
2023/10/03 02:21:59;;;;;;;0.20;0.20;;;17.90;99.90;;;;;;5012936;28;20049;-69
2023/10/03 02:24:25;;;;;;;0.17;0.17;;;17.90;99.90;;;;;;5010228;28;20468;-69
2023/10/03 02:26:51;;;;;;;0.10;0.10;;;17.90;99.90;;;;;;5026962;28;20377;-69
2023/10/03 02:29:17;;;;;;;0.20;0.20;;;17.80;99.90;;;;;;5011663;28;20049;-69
2023/10/03 02:31:44;;;;;;;0.20;0.20;;;17.80;99.90;;;;;;5011500;28;20037;-69
2023/10/03 02:34:10;;;;;;;0.20;0.20;;;17.80;99.90;;;;;;5026892;28;20046;-69
2023/10/03 02:36:35;;;;;;;0.20;0.20;;;17.70;99.90;;;;;;5012551;28;20096;-69
2023/10/03 02:39:01;;;;;;;0.20;0.20;;;17.70;99.90;;;;;;5011865;28;20099;-69
2023/10/03 02:41:29;;;;;;;0.10;0.10;;;17.70;99.90;;;;;;5010174;28;20095;-69
2023/10/03 02:43:55;;;;;;;0.10;0.10;;;17.70;99.90;;;;;;5011699;28;20056;-69
2023/10/03 02:46:21;;;;;;;0.20;0.20;;;17.70;99.90;;;;;;5012389;28;20037;-69
2023/10/03 02:48:48;;;;;;;0.20;0.20;;;17.70;99.90;;;;;;5029468;28;20049;-70
2023/10/03 02:51:14;;;;;;;0.20;0.20;;;17.70;99.90;;;;;;5010673;28;20060;-69
2023/10/03 02:53:40;;;;;;;0.20;0.20;;;17.60;99.90;;;;;;5007302;28;20405;-69
2023/10/03 02:56:07;;;;;;;0.20;0.20;;;17.70;99.90;;;;;;5004687;28;20112;-69
2023/10/03 02:58:33;;;;;;;0.20;0.20;;;17.60;99.90;;;;;;4994491;28;20030;-69
2023/10/03 03:00:58;;;;;;;0.20;0.20;;;17.70;99.90;;;;;;5009696;28;20037;-69
2023/10/03 03:03:32;;;;;;;0.20;0.20;;;17.70;99.90;;;;;;5009218;28;20040;-69
2023/10/03 03:05:59;;;;;;;0.65;0.30;;;17.80;99.90;;;;;;5001130;28;20048;-69
2023/10/03 03:08:28;;;;;;;0.10;0.10;;;17.80;99.90;;;;;;5009521;28;20088;-69
2023/10/03 03:10:57;;;;;;;0.20;0.20;;;17.80;99.90;;;;;;5004583;28;20042;-70
2023/10/03 03:13:35;;;;;;;0.20;0.20;;;17.90;99.90;;;;;;5008965;28;20049;-70
2023/10/03 03:16:04;;;;;;;0.10;0.10;;;17.90;99.90;;;;;;4992674;28;20520;-69
2023/10/03 03:18:40;;;;;;;0.17;0.17;;;17.90;99.90;;;;;;4994967;28;20034;-70
2023/10/03 03:21:13;;;;;;;0.20;0.20;;;18.00;99.90;;;;;;5009079;28;20050;-69
2023/10/03 03:23:42;;;;;;;0.22;0.22;;;18.10;99.90;;;;;;5008565;28;20054;-69
2023/10/03 03:26:18;;;;;;;0.52;0.52;;;18.00;99.90;;;;;;5005570;28;20082;-69
2023/10/03 03:28:51;;;;;;;0.20;0.20;;;18.10;99.90;;;;;;5006597;28;20112;-69
2023/10/03 03:31:22;;;;;;;0.20;0.20;;;18.20;99.90;;;;;;5009733;28;20120;-69
2023/10/03 03:33:52;;;;;;;0.20;0.20;;;18.20;99.90;;;;;;5008629;28;20042;-69
2023/10/03 03:36:23;;;;;;;0.20;0.20;;;18.20;99.90;;;;;;5008701;28;20490;-70
2023/10/03 03:38:51;;;;;;;0.22;0.22;;;18.20;99.90;;;;;;5008986;28;20124;-69
2023/10/03 03:41:18;;;;;;;0.20;0.20;;;18.20;99.90;;;;;;5007393;28;20034;-69
2023/10/03 03:43:44;;;;;;;0.20;0.20;;;18.20;99.90;;;;;;5009468;28;20144;-69
2023/10/03 03:46:12;;;;;;;0.20;0.20;;;18.20;99.90;;;;;;5010057;28;20092;-69
2023/10/03 03:48:38;;;;;;;0.10;0.10;;;18.30;99.90;;;;;;5008026;28;20065;-69
2023/10/03 03:51:09;;;;;;;0.20;0.20;;;18.20;99.90;;;;;;5007652;28;20543;-69
2023/10/03 03:53:35;;;;;;;0.20;0.20;;;18.30;99.90;;;;;;5006894;28;20054;-69
2023/10/03 03:56:05;;;;;;;0.20;0.20;;;18.30;99.90;;;;;;5005907;28;20442;-69
2023/10/03 03:58:31;;;;;;;0.20;0.20;;;18.30;99.90;;;;;;4998238;28;20045;-69
2023/10/03 04:00:58;;;;;;;0.20;0.20;;;18.30;99.90;;;;;;5008621;28;20088;-69
2023/10/03 04:03:26;;;;;;;0.15;0.15;;;18.30;99.90;;;;;;5009565;28;20052;-68
2023/10/03 04:05:52;;;;;;;0.20;0.20;;;18.30;99.90;;;;;;5008783;28;20042;-69
2023/10/03 04:08:18;;;;;;;0.20;0.20;;;18.40;99.90;;;;;;5007668;28;20042;-69
2023/10/03 04:10:44;;;;;;;0.20;0.20;;;18.40;99.90;;;;;;5003892;28;20041;-69
2023/10/03 04:13:10;;;;;;;0.20;0.20;;;18.40;99.90;;;;;;5005080;28;20050;-70
2023/10/03 04:15:39;;;;;;;0.20;0.20;;;18.40;99.90;;;;;;5008130;28;20042;-69
2023/10/03 04:18:09;;;;;;;0.20;0.20;;;18.40;99.90;;;;;;5008369;28;20061;-69
2023/10/03 04:20:35;;;;;;;0.20;0.20;;;18.40;99.90;;;;;;5008468;28;20401;-69
2023/10/03 04:23:03;;;;;;;0.10;0.10;;;18.40;99.90;;;;;;4991384;28;20052;-69
2023/10/03 04:25:30;;;;;;;0.20;0.20;;;18.40;99.90;;;;;;5009559;28;20042;-69
2023/10/03 04:27:56;;;;;;;0.20;0.20;;;18.40;99.90;;;;;;5006610;28;20560;-69
2023/10/03 04:30:26;;;;;;;0.15;0.15;;;18.40;99.90;;;;;;5010158;28;20103;-68
2023/10/03 04:32:55;;;;;;;0.30;0.30;;;18.40;99.90;;;;;;5009384;28;20049;-69
2023/10/03 04:35:22;;;;;;;0.20;0.20;;;18.40;99.90;;;;;;5009204;28;20144;-68
2023/10/03 04:37:51;;;;;;;0.20;0.20;;;18.50;99.90;;;;;;5007333;28;20057;-69
2023/10/03 04:40:24;;;;;;;0.20;0.20;;;18.50;99.90;;;;;;5007999;28;20501;-69
2023/10/03 04:42:58;;;;;;;0.20;0.20;;;18.50;99.90;;;;;;5006023;28;20053;-69
2023/10/03 04:45:25;;;;;;;0.10;0.10;;;18.60;99.90;;;;;;4992891;28;20053;-69
2023/10/03 04:47:52;;;;;;;0.20;0.20;;;18.60;99.90;;;;;;5007226;28;20363;-69
2023/10/03 04:50:19;;;;;;;0.20;0.20;;;18.60;99.90;;;;;;5006118;28;20200;-69
2023/10/03 04:52:48;;;;;;;0.30;0.30;;;18.60;99.90;;;;;;5012093;28;20067;-69
2023/10/03 04:55:23;;;;;;;0.20;0.20;;;18.60;99.90;;;;;;5010476;28;20140;-69
2023/10/03 04:57:51;;;;;;;0.20;0.20;;;18.70;99.90;;;;;;5008575;28;20482;-69
2023/10/03 05:00:19;;;;;;;0.20;0.20;;;18.70;99.90;;;;;;5008886;28;20502;-69
2023/10/03 05:02:47;;;;;;;0.20;0.20;;;18.70;99.90;;;;;;5010764;28;20049;-69
2023/10/03 05:05:23;;;;;;;0.20;0.20;;;18.80;99.90;;;;;;5027928;28;20041;-69
2023/10/03 05:07:52;;;;;;;0.20;0.20;;;18.80;99.90;;;;;;4995855;28;20049;-69
2023/10/03 05:10:19;;;;;;;0.20;0.20;;;18.90;99.90;;;;;;5012689;28;20400;-69
2023/10/03 05:12:46;;;;;;;0.20;0.20;;;18.90;99.90;;;;;;5002895;28;20056;-69
2023/10/03 05:15:14;;;;;;;0.20;0.20;;;18.90;99.90;;;;;;5014452;28;20056;-69
2023/10/03 05:17:41;;;;;;;0.28;0.28;;;18.90;99.90;;;;;;5011193;28;20056;-69
2023/10/03 05:20:07;;;;;;;0.20;0.20;;;18.90;99.90;;;;;;5014983;28;20103;-69
2023/10/03 05:22:33;;;;;;;0.22;0.22;;;19.00;99.90;;;;;;5014780;28;20045;-69
2023/10/03 05:25:03;;;;;;;0.20;0.20;;;19.00;99.90;;;;;;5014260;28;20049;-69
2023/10/03 05:27:29;;;;;;;0.10;0.10;;;19.00;99.90;;;;;;5013989;28;20081;-69
2023/10/03 05:29:59;;;;;;;0.52;0.30;;;19.00;99.90;;;;;;5014264;28;20091;-70
2023/10/03 05:32:28;;;;;;;0.20;0.20;;;19.00;99.90;;;;;;5015582;28;20420;-70
2023/10/03 05:34:54;;;;;;;0.20;0.20;;;19.10;99.90;;;;;;5014801;28;20057;-70
2023/10/03 05:37:20;;;;;;;0.20;0.20;;;19.10;99.90;;;;;;5015570;28;20666;-70
2023/10/03 05:39:45;;;;;;;0.10;0.10;;;19.10;99.90;;;;;;5013212;28;20076;-70
2023/10/03 05:42:11;;;;;;;0.20;0.20;;;19.10;99.90;;;;;;5010277;28;20132;-69
2023/10/03 05:44:37;;;;;;;0.20;0.20;;;19.10;99.90;;;;;;5013746;28;20393;-70
2023/10/03 05:47:03;;;;;;;0.15;0.15;;;19.10;99.90;;;;;;5014114;28;20045;-70
2023/10/03 05:49:29;;;;;;;0.20;0.20;;;19.10;99.90;;;;;;5014420;28;20053;-70
2023/10/03 05:51:58;;;;;;;0.10;0.10;;;19.20;99.90;;;;;;5013164;28;20048;-70
2023/10/03 05:54:27;;;;;;;0.10;0.10;;;19.20;99.90;;;;;;5012529;28;20059;-70
2023/10/03 05:56:54;;;;;;;0.20;0.20;;;19.20;99.90;;;;;;5002574;28;20041;-70
2023/10/03 05:59:20;;;;;;;0.20;0.20;;;19.20;99.90;;;;;;5028880;28;20041;-70
2023/10/03 06:01:47;;;;;;;0.17;0.17;;;19.30;99.90;;;;;;5011851;28;20037;-70
2023/10/03 06:04:13;;;;;;;0.20;0.20;;;19.30;99.90;;;;;;5013067;28;20476;-70
2023/10/03 06:06:39;;;;;;;0.20;0.20;;;19.30;99.90;;;;;;5012950;28;20041;-70
2023/10/03 06:09:05;;;;;;;1.00;0.32;;;19.40;99.90;;;;;;5029426;28;20497;-70
2023/10/03 06:11:31;;;;;;;0.20;0.20;;;19.40;99.90;;;;;;5005718;28;20037;-70
2023/10/03 06:13:59;;;;;;;0.20;0.20;;;19.40;99.90;;;;;;5019654;28;20534;-70
2023/10/03 06:16:28;;;;;;;0.13;0.13;;;19.40;99.90;;;;;;5010971;28;20662;-70
2023/10/03 06:18:54;;;;;;;0.20;0.20;;;19.40;99.90;;;;;;5011366;28;20079;-70
2023/10/03 06:21:20;;;;;;;0.20;0.20;;;19.40;99.90;;;;;;5010681;28;20061;-70
2023/10/03 06:23:46;;;;;;;0.20;0.20;;;19.40;99.90;;;;;;5012467;28;20107;-70
2023/10/03 06:26:17;;;;;;;0.20;0.20;;;19.40;99.90;;;;;;5012189;28;20140;-70
2023/10/03 06:28:43;;;;;;;0.20;0.20;;;19.40;99.90;;;;;;5008714;28;20069;-70
2023/10/03 06:31:11;;;;;;;0.20;0.20;;;19.50;99.90;;;;;;5030371;28;20136;-70
2023/10/03 06:33:37;;;;;;;0.20;0.20;;;19.50;99.90;;;;;;5029398;28;20120;-70
2023/10/03 06:36:06;;;;;;;0.20;0.20;;;19.50;99.90;;;;;;5031312;28;20061;-70
2023/10/03 06:38:32;;;;;;;0.28;0.20;;;19.50;99.90;;;;;;5012087;28;20048;-71
2023/10/03 06:40:58;;;;;;;0.20;0.20;;;19.50;99.90;;;;;;5010907;28;20067;-70
2023/10/03 06:43:24;;;;;;;0.20;0.20;;;19.50;99.90;;;;;;5008581;28;20330;-70
2023/10/03 06:45:50;;;;;;;0.20;0.20;;;19.50;99.90;;;;;;5011072;28;20049;-70
2023/10/03 06:48:15;;;;;;;0.20;0.20;;;19.50;99.90;;;;;;5028048;28;20068;-70
2023/10/03 06:50:42;;;;;;;0.20;0.20;;;19.50;99.90;;;;;;5009435;28;20115;-70
2023/10/03 06:53:09;;;;;;;0.20;0.20;;;19.50;99.90;;;;;;5010083;28;20088;-70
2023/10/03 06:55:35;;;;;;;0.20;0.20;;;19.50;99.90;;;;;;5011940;28;20049;-69
2023/10/03 06:58:04;;;;;;;0.10;0.10;;;19.40;99.90;;;;;;5008488;28;20578;-70
2023/10/03 07:00:32;;;;;;;0.10;0.10;;;19.40;99.90;;;;;;5006830;28;20042;-70
2023/10/03 07:02:58;;;;;;;0.20;0.20;;;19.40;99.90;;;;;;5010903;28;20041;-70
2023/10/03 07:05:24;;;;;;;0.20;0.20;;;19.40;99.90;;;;;;5027722;28;20040;-70
2023/10/03 07:07:50;;;;;;;0.20;0.20;;;19.40;99.90;;;;;;5012755;28;20041;-70
2023/10/03 07:10:16;;;;;;;0.20;0.20;;;19.30;99.90;;;;;;5011073;28;20374;-70
2023/10/03 07:12:42;;;;;;;0.10;0.10;;;19.30;99.90;;;;;;5007635;28;20063;-70
2023/10/03 07:15:08;;;;;;;0.20;0.20;;;19.20;99.90;;;;;;5023958;28;20045;-70
2023/10/03 07:17:35;;;;;;;0.20;0.20;;;19.20;99.90;;;;;;5013660;28;20666;-70
2023/10/03 07:20:04;;;;;;;0.20;0.20;;;19.10;99.90;;;;;;5005935;28;20041;-70
2023/10/03 07:22:30;;;;;;;0.20;0.20;;;19.10;99.90;;;;;;5013745;28;20127;-70
2023/10/03 07:24:56;;;;;;;0.10;0.10;;;19.00;99.90;;;;;;5026880;28;20091;-69
2023/10/03 07:27:21;;;;;;;0.20;0.20;;;19.00;99.90;;;;;;5013565;28;20548;-70
2023/10/03 07:29:47;;;;;;;0.20;0.20;;;18.90;99.90;;;;;;5029238;28;20624;-69
2023/10/03 07:32:14;;;;;;;0.20;0.20;;;18.90;99.90;;;;;;5013598;28;20053;-70
2023/10/03 07:34:45;;;;;;;0.20;0.20;;;18.80;99.90;;;;;;5010381;28;20049;-69
2023/10/03 07:37:12;;;;;;;0.20;0.20;;;18.80;99.90;;;;;;5011727;28;20076;-69
2023/10/03 07:39:40;;;;;;;0.20;0.20;;;18.80;99.90;;;;;;5011896;28;20059;-70
2023/10/03 07:42:06;;;;;;;0.20;0.20;;;18.80;99.90;;;;;;5013092;28;20045;-69
2023/10/03 07:44:32;;;;;;;0.20;0.20;;;18.80;99.90;;;;;;5011262;28;20598;-70
2023/10/03 07:46:58;;;;;;;0.20;0.20;;;18.70;99.90;;;;;;5012818;28;20729;-69
2023/10/03 07:49:24;;;;;;;0.20;0.20;;;18.70;99.90;;;;;;5013740;28;20092;-69
2023/10/03 07:51:55;;;;;;;0.20;0.20;;;18.70;99.90;;;;;;5013190;28;20080;-69
2023/10/03 07:54:21;;;;;;;0.20;0.20;;;18.70;99.90;;;;;;5010832;28;20437;-70
2023/10/03 07:56:48;;;;;;;0.20;0.20;;;18.60;99.90;;;;;;5012385;28;20041;-69
2023/10/03 07:59:14;;;;;;;0.20;0.20;;;18.60;99.90;;;;;;5012428;28;20056;-69
2023/10/03 08:01:40;;;;;;;0.20;0.20;;;18.60;99.90;;;;;;5012081;28;20579;-69
2023/10/03 08:04:12;;;;;;;0.20;0.20;;;18.50;99.90;;;;;;5013157;28;20100;-70
2023/10/03 08:06:39;;;;;;;0.20;0.20;;;18.50;99.90;;;;;;5028879;28;20041;-69
2023/10/03 08:09:06;;;;;;;0.20;0.20;;;18.50;99.90;;;;;;5020622;28;20084;-69
2023/10/03 08:11:32;;;;;;;0.10;0.10;;;18.40;99.90;;;;;;5013304;28;20508;-70
2023/10/03 08:13:59;;;;;;;0.20;0.20;;;18.40;99.90;;;;;;5026742;28;20084;-69
2023/10/03 08:16:28;;;;;;;0.20;0.20;;;18.40;99.90;;;;;;5010711;28;20054;-69
2023/10/03 08:19:01;;;;;;;0.20;0.20;;;18.30;99.90;;;;;;5004290;28;20669;-69
2023/10/03 08:21:28;;;;;;;0.10;0.10;;;18.20;99.90;;;;;;5012358;28;20473;-69
2023/10/03 08:23:58;;;;;;;0.20;0.20;;;18.20;99.90;;;;;;5010333;28;20154;-69
2023/10/03 08:26:25;;;;;;;0.17;0.17;;;18.10;99.90;;;;;;5012479;28;20048;-69
2023/10/03 08:29:04;;;;;;;0.10;0.10;;;18.00;99.90;;;;;;5010466;28;20049;-69
2023/10/03 08:31:30;;;;;;;0.10;0.10;;;18.00;99.90;;;;;;5029827;28;20033;-69
2023/10/03 08:33:56;;;;;;;0.20;0.20;;;18.00;99.90;;;;;;5011647;28;20567;-69
2023/10/03 08:36:23;;;;;;;0.20;0.20;;;18.00;99.90;;;;;;5012068;28;20057;-69
2023/10/03 08:38:49;;;;;;;0.20;0.20;;;17.90;99.90;;;;;;5010933;28;20103;-69
2023/10/03 08:41:28;;;;;;;0.20;0.20;;;17.90;99.90;;;;;;5012946;28;20132;-69
2023/10/03 08:43:55;;;;;;;0.20;0.20;;;17.90;99.90;;;;;;5011483;28;20498;-69
2023/10/03 08:46:28;;;;;;;0.20;0.20;;;17.90;99.90;;;;;;5029509;28;20497;-69
2023/10/03 08:49:00;;;;;;;0.20;0.20;;;17.90;99.90;;;;;;5026601;28;20045;-69
2023/10/03 08:51:32;;;;;;;0.15;0.15;;;18.00;99.90;;;;;;5012630;28;20084;-69
2023/10/03 08:54:09;;;;;;;0.20;0.20;;;17.90;99.90;;;;;;5007838;28;20058;-69
2023/10/03 08:56:35;;;;;;;0.20;0.20;;;17.90;99.90;;;;;;5008399;28;20598;-69
2023/10/03 08:59:08;;;;;;;0.20;0.20;;;17.90;99.90;;;;;;5003528;28;20069;-70
2023/10/03 09:01:43;;;;;;;0.20;0.20;;;17.90;99.90;;;;;;4998030;28;20057;-70
2023/10/03 09:04:15;;;;;;;0.20;0.20;;;17.90;99.90;;;;;;5008919;28;20494;-69
2023/10/03 09:06:45;;;;;;;0.20;0.20;;;17.90;99.90;;;;;;5008431;28;20042;-70
2023/10/03 09:09:14;;;;;;;0.20;0.20;;;17.80;99.90;;;;;;5009217;28;20042;-71
2023/10/03 09:11:42;;;;;;;0.20;0.20;;;17.70;99.90;;;;;;5007515;28;20038;-70
2023/10/03 09:14:19;;;;;;;0.20;0.20;;;17.70;99.90;;;;;;5007974;28;20041;-70
2023/10/03 09:16:50;;;;;;;0.20;0.20;;;17.60;99.90;;;;;;5001524;28;20076;-71
2023/10/03 09:19:26;;;;;;;0.20;0.20;;;17.50;99.90;;;;;;5007706;28;20044;-70
2023/10/03 09:21:54;;;;;;;0.15;0.15;;;17.40;99.90;;;;;;5008861;28;20054;-71
2023/10/03 09:24:22;;;;;;;0.20;0.20;;;17.40;99.90;;;;;;5007232;28;20133;-71
2023/10/03 09:27:02;;;;;;;0.20;0.20;;;17.40;99.90;;;;;;5007995;28;20096;-70
2023/10/03 09:29:30;;;;;;;0.20;0.20;;;17.30;99.90;;;;;;5007609;28;20441;-71
2023/10/03 09:31:59;;;;;;;0.20;0.20;;;17.20;99.90;;;;;;5008214;28;20100;-70
2023/10/03 09:34:32;;;;;;;0.10;0.10;;;17.20;99.90;;;;;;5008358;28;20057;-70
2023/10/03 09:37:05;;;;;;;0.15;0.15;;;17.20;99.90;;;;;;5008781;28;20343;-70
2023/10/03 09:39:31;;;;;;;0.20;0.20;;;17.10;99.90;;;;;;5009346;28;20120;-71
2023/10/03 09:42:03;;;;;;;0.20;0.20;;;17.10;99.90;;;;;;5009020;28;20041;-70
2023/10/03 09:44:31;;;;;;;0.10;0.10;;;17.10;99.90;;;;;;5007070;28;20041;-70
2023/10/03 09:47:00;;;;;;;0.20;0.20;;;17.00;99.90;;;;;;5008906;28;20053;-70
2023/10/03 09:49:41;;;;;;;0.20;0.20;;;17.00;99.90;;;;;;5007985;28;20061;-71
2023/10/03 09:52:26;;;;;;;0.20;0.20;;;16.90;99.90;;;;;;5008565;28;20545;-71
2023/10/03 09:54:59;;;;;;;0.20;0.20;;;;;;;;;;5012061;28;20097;-71
2023/10/03 09:57:29;;;;;;;0.20;0.20;;;16.80;99.90;;;;;;5012360;28;20050;-71
2023/10/03 09:59:55;;;;;;;0.20;0.20;;;16.70;99.90;;;;;;5012178;28;20061;-71
2023/10/03 10:02:35;;;;;;;0.20;0.20;;;16.70;99.90;;;;;;5012117;28;20121;-70
2023/10/03 10:05:19;;;;;;;0.20;0.20;;;16.60;99.90;;;;;;5013395;28;20802;-71
2023/10/03 10:08:09;;;;;;;0.20;0.20;;;16.60;99.90;;;;;;5011300;28;20121;-71
2023/10/03 10:10:35;;;;;;;0.20;0.20;;;16.50;99.90;;;;;;5008893;28;20063;-71
2023/10/03 10:13:20;;;;;;;0.20;0.20;;;16.50;99.90;;;;;;5013288;28;20129;-71
2023/10/03 10:16:07;;;;;;;0.10;0.10;;;16.40;99.90;;;;;;5007418;28;20050;-71
2023/10/03 10:18:45;;;;;;;0.10;0.10;;;16.30;99.90;;;;;;5003711;28;20054;-71
2023/10/03 10:21:20;;;;;;;0.20;0.20;;;16.30;99.90;;;;;;5008980;28;20042;-71
2023/10/03 10:24:16;;;;;;;0.20;0.20;;;16.30;99.90;;;;;;5008338;28;20044;-71
2023/10/03 10:26:48;;;;;;;0.20;0.20;;;16.30;99.90;;;;;;5007785;28;20053;-70
2023/10/03 10:29:19;;;;;;;0.20;0.20;;;16.30;99.90;;;;;;5010290;28;20050;-73
2023/10/03 10:31:49;;;;;;;0.15;0.15;;;16.30;99.90;;;;;;5008457;28;20056;-71
2023/10/03 10:34:36;;;;;;;0.20;0.20;;;16.20;99.90;;;;;;5015276;28;20088;-71
2023/10/03 10:37:09;;;;;;;0.20;0.20;;;16.30;99.90;;;;;;5011300;28;20048;-71
2023/10/03 10:39:54;;;;;;;0.10;0.10;;;16.30;99.90;;;;;;5010951;28;20053;-71
2023/10/03 10:42:29;;;;;;;0.20;0.20;;;16.30;99.90;;;;;;5010843;28;20077;-70
2023/10/03 10:45:13;;;;;;;0.20;0.20;;;16.30;99.90;;;;;;5010672;28;20453;-71
2023/10/03 10:47:51;;;;;;;0.15;0.15;;;16.30;99.90;;;;;;5010501;28;20050;-71
2023/10/03 10:50:25;;;;;;;0.20;0.20;;;16.30;99.90;;;;;;5008419;28;20050;-71
2023/10/03 10:53:02;;;;;;;0.20;0.20;;;16.30;99.90;;;;;;4990879;28;20070;-71
2023/10/03 10:55:29;;;;;;;0.20;0.20;;;16.30;99.90;;;;;;4991932;28;20054;-71
2023/10/03 10:58:21;;;;;;;0.20;0.20;;;16.30;99.90;;;;;;4992077;28;20060;-71
2023/10/03 11:00:56;;;;;;;0.20;0.20;;;16.40;99.90;;;;;;4998511;28;20066;-70
2023/10/03 11:03:22;;;;;;;0.20;0.20;;;16.40;99.90;;;;;;5010028;28;20038;-70
2023/10/03 11:05:49;;;;;;;0.20;0.20;;;16.40;99.90;;;;;;5009067;28;20050;-70
2023/10/03 11:08:17;;;;;;;0.20;0.20;;;16.40;99.90;;;;;;5011013;28;20061;-71
2023/10/03 11:10:53;;;;;;;0.10;0.10;;;16.30;99.90;;;;;;5011176;28;20088;-70
2023/10/03 11:13:23;;;;;;;0.10;0.10;;;16.30;99.90;;;;;;5010672;28;20092;-70
2023/10/03 11:15:54;;;;;;;0.20;0.20;;;16.30;99.90;;;;;;5009370;28;20445;-71
2023/10/03 11:18:30;;;;;;;0.10;0.10;;;16.30;99.90;;;;;;5006777;28;20561;-70
2023/10/03 11:20:57;;;;;;;0.20;0.20;;;16.30;99.90;;;;;;5001876;28;20073;-71
2023/10/03 11:23:23;;;;;;;0.10;0.10;;;16.30;99.90;;;;;;5026760;28;20069;-70
2023/10/03 11:25:56;;;;;;;0.10;0.10;;;16.30;99.90;;;;;;5025847;28;20180;-70
2023/10/03 11:28:28;;;;;;;0.20;0.20;;;16.30;99.90;;;;;;5010543;28;20433;-70
2023/10/03 11:31:01;;;;;;;0.10;0.10;;;16.30;99.90;;;;;;5010051;28;20046;-70
2023/10/03 11:33:27;;;;;;;0.20;0.20;;;16.20;99.90;;;;;;5005189;28;20116;-70
2023/10/03 11:35:53;;;;;;;0.10;0.10;;;16.20;99.90;;;;;;5010613;28;20038;-70
2023/10/03 11:38:19;;;;;;;0.15;0.15;;;16.20;99.90;;;;;;5005300;28;20042;-70
2023/10/03 11:40:47;;;;;;;0.20;0.20;;;16.20;99.90;;;;;;5008332;28;20076;-70
2023/10/03 11:43:19;;;;;;;0.20;0.20;;;16.20;99.90;;;;;;5010907;28;20046;-71
2023/10/03 11:45:55;;;;;;;0.20;0.20;;;16.30;99.90;;;;;;5008449;28;20116;-70
2023/10/03 11:48:22;;;;;;;0.20;0.20;;;16.30;99.90;;;;;;5004064;28;20050;-70
2023/10/03 11:50:49;;;;;;;0.10;0.10;;;16.40;99.90;;;;;;5009465;28;20497;-70
2023/10/03 11:53:15;;;;;;;0.10;0.10;;;16.30;99.90;;;;;;5007257;28;20149;-70
2023/10/03 11:55:42;;;;;;;0.20;0.20;;;16.40;99.90;;;;;;5007429;28;20405;-70
2023/10/03 11:58:10;;;;;;;0.15;0.15;;;16.40;99.90;;;;;;5006690;28;20053;-70
2023/10/03 12:00:36;;;;;;;0.20;0.20;;;16.40;99.90;;;;;;5006252;28;20109;-70
2023/10/03 12:03:09;;;;;;;0.20;0.20;;;16.40;99.90;;;;;;4998904;28;20053;-70
2023/10/03 12:05:36;;;;;;;0.20;0.20;;;16.40;99.90;;;;;;4988899;28;20058;-70
2023/10/03 12:08:03;;;;;;;0.20;0.20;;;16.40;99.90;;;;;;4989402;28;20068;-70
2023/10/03 12:10:31;;;;;;;0.10;0.10;;;16.40;99.90;;;;;;4992120;28;20387;-70
2023/10/03 12:12:58;;;;;;;0.20;0.20;;;16.40;99.90;;;;;;4990290;28;20486;-70
2023/10/03 12:15:24;;;;;;;0.15;0.15;;;16.40;99.90;;;;;;4989814;28;20103;-70
2023/10/03 12:17:50;;;;;;;0.10;0.10;;;16.30;99.90;;;;;;4991482;28;20160;-71
2023/10/03 12:20:20;;;;;;;0.20;0.20;;;16.30;99.90;;;;;;5008546;28;20060;-68
2023/10/03 12:22:51;;;;;;;0.20;0.20;;;16.20;99.90;;;;;;5009030;28;20046;-69
2023/10/03 12:25:23;;;;;;;0.20;0.20;;;16.20;99.90;;;;;;5010018;28;20046;-71
2023/10/03 12:27:49;;;;;;;0.17;0.17;;;16.10;99.90;;;;;;5009313;28;20054;-72
2023/10/03 12:30:17;;;;;;;0.20;0.20;;;16.10;99.90;;;;;;5009651;28;20053;-71
2023/10/03 12:32:47;;;;;;;0.20;0.20;;;16.10;99.90;;;;;;5008267;28;20498;-71
2023/10/03 12:35:14;;;;;;;0.20;0.20;;;16.10;99.90;;;;;;5008695;28;20637;-71
2023/10/03 12:37:46;;;;;;;0.20;0.20;;;16.00;99.90;;;;;;5009169;28;20053;-71
2023/10/03 12:40:13;;;;;;;0.20;0.20;;;16.10;99.90;;;;;;5010183;28;20095;-72
2023/10/03 12:42:50;;;;;;;0.10;0.10;;;16.20;99.90;;;;;;5009924;28;20050;-72
2023/10/03 12:45:24;;;;;;;0.17;0.17;;;16.30;99.90;;;;;;5009979;28;20100;-72
2023/10/03 12:47:54;;;;;;;0.20;0.20;;;16.50;99.90;;;;;;5008924;28;20058;-71
2023/10/03 12:50:23;;;;;;;0.20;0.20;;;16.60;99.90;;;;;;5000585;28;20094;-72
2023/10/03 12:53:01;;;;;;;0.20;0.20;;;16.30;99.90;;;;;;5006700;28;20115;-72
2023/10/03 12:55:29;;;;;;;0.20;0.20;;;16.60;99.90;;;;;;5009161;28;20121;-75
2023/10/03 12:57:56;;;;;;;0.10;0.10;;;16.60;99.90;;;;;;5005711;28;20125;-72
2023/10/03 13:00:23;;;;;;;0.10;0.10;;;16.50;99.90;;;;;;5008391;28;20060;-72